Pagina principale
METAR-TAF:

METAR-TAF

Aeroporti :

Aeroporto di Lione Saint Exupéry

Lione / Saint Exupéry, Francia

latitudine: 45-44N, longitudine: 005-05E, altezza: 248 m

Osservazione

Il bollettino è stato emesso 29 minuti fa, alle 19:30 UTC
Vento 7 kt da sud-est
Temperature 29°C
Umidità 58%
Pressione 1019 hPa
Visibilità 10 km o più
nessuna nube inferiore a 1500 m e nessun cumulonembo

METAR: LFLL 251930Z 13007KT CAVOK 29/20 Q1019 NOSIG

Ora: 21:59 (19:59 UTC)

Previsione

Il bollettino è stato emesso 2 ore e 59 minuti fa, alle 17:00 UTC
Previsione valida dal 25 alle 18 UTC al 26 alle 24 UTC
Vento 8 kt da sud/sud-est
Visibilità 10 km o più
nessuna nube inferiore a 1500 m e nessun cumulonembo

TAF: LFLL 251700Z 2518/2624 15008KT CAVOK

Osservazioni e previsioni meteorologiche di più di 4000 aeroporti (messaggi METAR e TAF).

Le stazioni disponibili sono rappresentate dai dischi gialli e rossi sulla carta.

Puntare il mouse per vedere il nome della stazione.

Clicca sopra per visualizzare le osservazioni e previsioni meteorologiche.

Per cambiare la mappa : fare clic sui pulsanti verdi con una croce nera per ingrandire, il pulsante verde con un trattino per diminuire, o sulla freccia verde per le mappe adiacenti.


METAR-TAF: